createdAt,value
2022-07-27T00:01:12.928Z,15.70
2022-07-27T00:03:41.281Z,15.80
2022-07-27T00:06:09.346Z,15.80
2022-07-27T00:08:37.356Z,15.80
2022-07-27T00:11:06.313Z,15.80
2022-07-27T00:13:34.662Z,15.90
2022-07-27T00:16:02.726Z,15.90
2022-07-27T00:18:32.262Z,16.00
2022-07-27T00:21:00.297Z,15.80
2022-07-27T00:23:28.814Z,15.70
2022-07-27T00:25:56.768Z,15.80
2022-07-27T00:28:24.749Z,15.80
2022-07-27T00:30:52.708Z,15.80
2022-07-27T00:33:20.653Z,15.70
2022-07-27T00:35:49.945Z,15.70
2022-07-27T00:38:18.063Z,15.60
2022-07-27T00:40:46.292Z,15.50
2022-07-27T00:43:15.379Z,15.40
2022-07-27T00:45:43.695Z,15.30
2022-07-27T00:48:12.099Z,15.20
2022-07-27T00:50:43.343Z,15.20
2022-07-27T00:53:14.358Z,15.20
2022-07-27T00:55:42.400Z,15.20
2022-07-27T00:58:10.700Z,15.20
2022-07-27T01:00:40.180Z,15.10
2022-07-27T01:03:09.231Z,15.10
2022-07-27T01:05:43.190Z,15.20
2022-07-27T01:08:14.726Z,15.10
2022-07-27T01:10:44.201Z,15.00
2022-07-27T01:13:13.039Z,15.00
2022-07-27T01:15:42.525Z,14.90
2022-07-27T01:18:13.005Z,15.00
2022-07-27T01:20:41.778Z,15.00
2022-07-27T01:23:11.400Z,15.10
2022-07-27T01:25:42.497Z,15.10
2022-07-27T01:28:10.562Z,15.10
2022-07-27T01:30:38.581Z,15.00
2022-07-27T01:33:08.860Z,15.00
2022-07-27T01:35:38.758Z,15.00
2022-07-27T01:38:07.467Z,14.90
2022-07-27T01:40:37.796Z,14.80
2022-07-27T01:43:06.296Z,14.70
2022-07-27T01:45:34.322Z,14.70
2022-07-27T01:48:02.500Z,14.70
2022-07-27T01:50:30.738Z,14.70
2022-07-27T01:52:58.715Z,14.50
2022-07-27T01:55:26.727Z,14.50
2022-07-27T01:58:07.252Z,14.50
2022-07-27T02:00:36.166Z,14.60
2022-07-27T02:03:04.724Z,14.40
2022-07-27T02:05:33.181Z,14.30
2022-07-27T02:08:01.271Z,14.40
2022-07-27T02:10:29.322Z,14.40
2022-07-27T02:12:56.391Z,14.30
2022-07-27T02:15:27.893Z,14.20
2022-07-27T02:18:33.218Z,14.20
2022-07-27T02:20:58.315Z,14.20
2022-07-27T02:23:26.351Z,14.00
2022-07-27T02:25:54.407Z,13.90
2022-07-27T02:28:22.380Z,13.70
2022-07-27T02:30:51.795Z,13.60
2022-07-27T02:33:19.814Z,13.60
2022-07-27T02:35:47.800Z,13.60
2022-07-27T02:38:15.829Z,13.70
2022-07-27T02:40:49.069Z,13.50
2022-07-27T02:43:17.103Z,13.60
2022-07-27T02:45:46.467Z,13.70
2022-07-27T02:48:16.213Z,13.70
2022-07-27T02:50:44.194Z,13.70
2022-07-27T02:53:12.192Z,13.70
2022-07-27T02:55:40.160Z,13.80
2022-07-27T02:58:08.255Z,13.80
2022-07-27T03:00:36.237Z,13.70
2022-07-27T03:03:04.284Z,13.50
2022-07-27T03:05:33.765Z,13.50
2022-07-27T03:08:02.141Z,13.40
2022-07-27T03:10:30.124Z,13.30
2022-07-27T03:12:58.180Z,13.10
2022-07-27T03:15:26.398Z,12.80
2022-07-27T03:17:54.371Z,12.60
2022-07-27T03:20:22.480Z,12.60
2022-07-27T03:22:51.869Z,12.60
2022-07-27T03:25:19.849Z,12.60
2022-07-27T03:27:47.896Z,12.60
2022-07-27T03:30:16.273Z,12.60
2022-07-27T03:32:44.256Z,12.60
2022-07-27T03:35:12.956Z,12.60
2022-07-27T03:37:40.986Z,12.60
2022-07-27T03:40:11.371Z,12.30
2022-07-27T03:42:39.832Z,12.30
2022-07-27T03:45:09.312Z,12.30
2022-07-27T03:47:37.464Z,12.20
2022-07-27T03:50:06.104Z,12.30
2022-07-27T03:52:34.131Z,12.40
2022-07-27T03:55:02.196Z,12.40
2022-07-27T03:57:33.156Z,12.40
2022-07-27T04:00:01.187Z,12.40
2022-07-27T04:02:29.355Z,12.50
2022-07-27T04:04:57.404Z,12.60
2022-07-27T04:07:25.437Z,12.60
2022-07-27T04:09:53.505Z,12.60
2022-07-27T04:12:21.536Z,12.60
2022-07-27T04:14:50.924Z,12.60
2022-07-27T04:17:56.195Z,12.60
2022-07-27T04:20:09.336Z,12.70
2022-07-27T04:22:37.518Z,12.90
2022-07-27T04:25:06.116Z,12.90
2022-07-27T04:27:34.202Z,13.00
2022-07-27T04:30:08.267Z,13.00
2022-07-27T04:32:37.432Z,13.00
2022-07-27T04:35:06.118Z,13.00
2022-07-27T04:37:34.160Z,13.10
2022-07-27T04:40:03.397Z,13.30
2022-07-27T04:42:31.435Z,13.40
2022-07-27T04:44:59.765Z,13.30
2022-07-27T04:47:29.766Z,13.40
2022-07-27T04:49:58.109Z,13.50
2022-07-27T04:52:26.707Z,13.50
2022-07-27T04:54:55.670Z,13.60
2022-07-27T04:57:24.047Z,13.90
2022-07-27T04:59:52.094Z,13.90
2022-07-27T05:02:20.105Z,13.90
2022-07-27T05:04:49.654Z,14.10
2022-07-27T05:07:17.966Z,14.10
2022-07-27T05:09:46.566Z,14.20
2022-07-27T05:12:14.662Z,14.30
2022-07-27T05:14:43.789Z,14.40
2022-07-27T05:17:12.844Z,14.30
2022-07-27T05:19:41.367Z,14.40
2022-07-27T05:22:11.273Z,14.70
2022-07-27T05:24:39.370Z,14.70
2022-07-27T05:27:09.069Z,14.80
2022-07-27T05:29:37.368Z,14.90
2022-07-27T05:32:06.537Z,15.00
2022-07-27T05:34:35.016Z,15.10
2022-07-27T05:37:03.875Z,15.20
2022-07-27T05:39:34.257Z,15.30
2022-07-27T05:42:04.953Z,15.30
2022-07-27T05:44:33.229Z,15.50
2022-07-27T05:47:01.302Z,15.60
2022-07-27T05:49:34.078Z,15.60
2022-07-27T05:52:02.402Z,15.60
2022-07-27T05:54:30.464Z,15.80
2022-07-27T05:57:00.389Z,16.10
2022-07-27T05:59:29.455Z,16.40
2022-07-27T06:01:57.419Z,16.40
2022-07-27T06:04:25.788Z,16.50
2022-07-27T06:07:22.524Z,17.00
2022-07-27T06:09:50.619Z,17.40
2022-07-27T06:12:20.406Z,17.70
2022-07-27T06:14:50.837Z,17.80
2022-07-27T06:17:19.485Z,17.60
2022-07-27T06:19:47.450Z,17.70
2022-07-27T06:22:15.457Z,17.90
2022-07-27T06:24:43.660Z,17.90
2022-07-27T06:27:11.702Z,17.90
2022-07-27T06:29:41.223Z,18.10
2022-07-27T06:32:09.672Z,18.30
2022-07-27T06:34:42.229Z,18.40
2022-07-27T06:37:11.283Z,18.40
2022-07-27T06:39:39.322Z,18.60
2022-07-27T06:42:07.324Z,18.60
2022-07-27T06:44:35.377Z,18.60
2022-07-27T06:47:04.849Z,18.80
2022-07-27T06:49:32.908Z,19.10
2022-07-27T06:52:01.000Z,19.40
2022-07-27T06:54:29.161Z,19.60
2022-07-27T06:56:57.141Z,20.00
2022-07-27T06:59:25.127Z,20.20
2022-07-27T07:02:12.687Z,20.40
2022-07-27T07:04:40.904Z,20.50
2022-07-27T07:07:08.893Z,20.20
2022-07-27T07:09:37.176Z,20.30
2022-07-27T07:12:05.978Z,20.20
2022-07-27T07:14:34.160Z,20.30
2022-07-27T07:17:02.638Z,20.40
2022-07-27T07:19:32.007Z,20.40
2022-07-27T07:22:00.132Z,20.30
2022-07-27T07:24:29.973Z,20.20
2022-07-27T07:26:58.224Z,20.30
2022-07-27T07:29:26.441Z,20.50
2022-07-27T07:31:54.517Z,20.90
2022-07-27T07:34:23.276Z,20.90
2022-07-27T07:36:53.129Z,21.20
2022-07-27T07:39:21.129Z,21.00
2022-07-27T07:41:49.332Z,20.80
2022-07-27T07:44:17.403Z,20.80
2022-07-27T07:46:47.373Z,20.80
2022-07-27T07:49:15.965Z,20.90
2022-07-27T07:51:44.456Z,20.90
2022-07-27T07:54:13.935Z,21.00
2022-07-27T07:56:41.919Z,20.90
2022-07-27T07:59:10.263Z,21.00
2022-07-27T08:01:38.769Z,21.30
2022-07-27T08:04:07.139Z,21.30
2022-07-27T08:06:35.146Z,21.40
2022-07-27T08:09:03.379Z,21.60
2022-07-27T08:11:32.872Z,21.50
2022-07-27T08:14:01.189Z,21.60
2022-07-27T08:16:29.361Z,22.00
2022-07-27T08:18:57.759Z,22.20
2022-07-27T08:21:25.732Z,21.90
2022-07-27T08:23:53.832Z,21.90
2022-07-27T08:26:26.752Z,21.90
2022-07-27T08:28:56.153Z,21.80
2022-07-27T08:31:51.169Z,21.90
2022-07-27T08:34:16.317Z,22.00
2022-07-27T08:36:44.444Z,21.90
2022-07-27T08:39:32.069Z,22.00
2022-07-27T08:42:05.223Z,22.10
2022-07-27T08:44:35.784Z,21.90
2022-07-27T08:47:05.212Z,21.70
2022-07-27T08:49:42.981Z,21.60
2022-07-27T08:52:12.907Z,21.60
2022-07-27T08:54:41.728Z,21.60
2022-07-27T08:57:10.282Z,21.90
2022-07-27T08:59:39.684Z,22.10
2022-07-27T09:02:14.068Z,22.40
2022-07-27T09:04:42.296Z,22.60
2022-07-27T09:07:10.352Z,22.60
2022-07-27T09:09:46.858Z,22.80
2022-07-27T09:12:15.078Z,22.90
2022-07-27T09:14:47.600Z,23.10
2022-07-27T09:20:18.893Z,23.20
2022-07-27T09:22:50.800Z,23.00
2022-07-27T09:25:38.343Z,23.10
2022-07-27T09:28:09.316Z,23.20
2022-07-27T09:30:43.278Z,23.40
2022-07-27T09:33:11.419Z,23.30
2022-07-27T09:35:39.908Z,23.20
2022-07-27T09:38:21.254Z,23.20
2022-07-27T09:40:50.518Z,23.10
2022-07-27T09:44:12.515Z,22.80
2022-07-27T09:46:08.579Z,23.00
2022-07-27T09:48:37.218Z,23.20
2022-07-27T09:51:43.519Z,23.40
2022-07-27T09:53:57.495Z,23.50
2022-07-27T09:56:30.076Z,23.70
2022-07-27T09:58:59.477Z,23.70
2022-07-27T10:01:30.847Z,23.50
2022-07-27T10:04:00.767Z,23.30
2022-07-27T10:06:38.955Z,23.00
2022-07-27T10:09:16.067Z,23.10
2022-07-27T10:11:44.616Z,23.10
2022-07-27T10:14:12.866Z,23.30
2022-07-27T10:16:43.452Z,23.70
2022-07-27T10:19:16.592Z,23.80
2022-07-27T10:21:46.421Z,23.90
2022-07-27T10:24:27.036Z,23.70
2022-07-27T10:26:55.604Z,23.40
2022-07-27T10:29:25.255Z,23.20
2022-07-27T10:32:01.920Z,23.10
2022-07-27T10:34:35.634Z,23.10
2022-07-27T10:37:11.787Z,23.20
2022-07-27T10:39:43.041Z,23.20
2022-07-27T10:42:26.418Z,23.10
2022-07-27T10:45:02.986Z,23.30
2022-07-27T10:47:39.061Z,23.20
2022-07-27T10:50:33.359Z,23.20
2022-07-27T10:53:07.470Z,23.10
2022-07-27T10:55:53.769Z,23.20
2022-07-27T10:58:51.303Z,23.20
2022-07-27T11:01:23.792Z,23.40
2022-07-27T11:03:53.740Z,23.30
2022-07-27T11:06:47.799Z,23.20
2022-07-27T11:10:03.044Z,23.20
2022-07-27T11:12:07.845Z,23.20
2022-07-27T11:14:45.736Z,23.20
2022-07-27T11:17:48.721Z,23.20
2022-07-27T11:20:04.733Z,23.20
2022-07-27T11:25:23.375Z,23.20
2022-07-27T11:27:52.219Z,23.20
2022-07-27T11:30:25.137Z,23.20
2022-07-27T11:32:53.573Z,23.10
2022-07-27T11:35:23.226Z,23.00
2022-07-27T11:38:02.457Z,23.00
2022-07-27T11:43:38.613Z,23.20
2022-07-27T11:46:15.136Z,23.20
2022-07-27T11:49:17.591Z,23.20
2022-07-27T11:51:42.767Z,23.10
2022-07-27T11:54:12.231Z,23.00
2022-07-27T11:56:43.865Z,22.80
2022-07-27T11:59:15.217Z,22.80
2022-07-27T12:01:46.634Z,22.70
2022-07-27T12:04:23.696Z,22.60
2022-07-27T12:07:05.803Z,22.60
2022-07-27T12:09:38.645Z,22.90
2022-07-27T12:12:13.862Z,23.10
2022-07-27T12:14:43.556Z,23.00
2022-07-27T12:17:20.867Z,23.00
2022-07-27T12:20:00.577Z,23.10
2022-07-27T12:22:36.210Z,23.10
2022-07-27T12:25:29.539Z,22.90
2022-07-27T12:27:59.422Z,23.00
2022-07-27T12:30:32.202Z,23.20
2022-07-27T12:33:00.983Z,23.40
2022-07-27T12:35:36.232Z,23.30
2022-07-27T12:38:07.211Z,23.40
2022-07-27T12:40:44.259Z,23.60
2022-07-27T12:43:16.840Z,23.70
2022-07-27T12:45:45.642Z,23.70
2022-07-27T12:48:16.927Z,23.50
2022-07-27T12:50:47.138Z,23.30
2022-07-27T12:53:17.745Z,23.30
2022-07-27T12:55:45.946Z,23.20
2022-07-27T12:58:15.061Z,23.30
2022-07-27T13:00:43.350Z,23.40
2022-07-27T13:03:11.505Z,23.50
2022-07-27T13:05:39.543Z,23.50
2022-07-27T13:08:08.176Z,23.40
2022-07-27T13:10:37.943Z,23.40
2022-07-27T13:13:06.740Z,23.50
2022-07-27T13:15:35.284Z,23.50
2022-07-27T13:18:03.760Z,23.60
2022-07-27T13:20:32.139Z,23.60
2022-07-27T13:23:00.360Z,23.60
2022-07-27T13:25:28.456Z,23.40
2022-07-27T13:27:57.791Z,23.40
2022-07-27T13:30:26.702Z,23.40
2022-07-27T13:32:54.751Z,23.40
2022-07-27T13:35:22.883Z,23.40
2022-07-27T13:37:50.906Z,23.30
2022-07-27T13:40:19.219Z,23.40
2022-07-27T13:42:47.444Z,23.50
2022-07-27T13:45:17.224Z,23.50
2022-07-27T13:47:45.424Z,23.50
2022-07-27T13:50:19.266Z,23.50
2022-07-27T13:52:48.804Z,23.30
2022-07-27T13:55:17.466Z,23.30
2022-07-27T13:57:46.760Z,23.20
2022-07-27T14:00:17.806Z,23.30
2022-07-27T14:02:56.901Z,23.30
2022-07-27T14:05:25.685Z,23.40
2022-07-27T14:07:56.163Z,23.40
2022-07-27T14:10:39.593Z,23.40
2022-07-27T14:13:09.936Z,23.70
2022-07-27T14:15:50.268Z,23.80
2022-07-27T14:18:22.297Z,23.50
2022-07-27T14:20:50.486Z,23.30
2022-07-27T14:23:18.676Z,23.10
2022-07-27T14:25:46.728Z,22.90
2022-07-27T14:28:15.812Z,22.70
2022-07-27T14:30:45.536Z,22.70
2022-07-27T14:33:13.678Z,22.80
2022-07-27T14:35:50.060Z,22.90
2022-07-27T14:38:26.967Z,22.80
2022-07-27T14:41:00.732Z,22.80
2022-07-27T14:43:29.649Z,22.80
2022-07-27T14:45:59.684Z,22.90
2022-07-27T14:48:48.900Z,22.90
2022-07-27T14:51:16.212Z,22.80
2022-07-27T14:53:44.288Z,22.70
2022-07-27T14:56:12.301Z,22.80
2022-07-27T14:58:40.322Z,22.80
2022-07-27T15:01:09.865Z,22.50
2022-07-27T15:03:38.043Z,22.60
2022-07-27T15:06:06.215Z,22.50
2022-07-27T15:08:34.498Z,22.50
2022-07-27T15:11:02.489Z,22.50
2022-07-27T15:13:30.562Z,22.50
2022-07-27T15:15:58.792Z,22.50
2022-07-27T15:18:28.236Z,22.40
2022-07-27T15:20:56.359Z,22.40
2022-07-27T15:23:24.393Z,22.40
2022-07-27T15:25:52.632Z,22.50
2022-07-27T15:28:20.828Z,22.70
2022-07-27T15:30:48.822Z,22.80
2022-07-27T15:33:16.800Z,23.00
2022-07-27T15:35:46.248Z,23.00
2022-07-27T15:38:14.232Z,23.20
2022-07-27T15:40:42.462Z,23.20
2022-07-27T15:43:12.433Z,23.20
2022-07-27T15:45:41.667Z,23.10
2022-07-27T15:48:11.172Z,22.50
2022-07-27T15:50:40.305Z,22.10
2022-07-27T15:53:10.978Z,22.00
2022-07-27T15:55:39.470Z,22.00
2022-07-27T15:58:08.163Z,21.70
2022-07-27T16:00:40.525Z,21.70
2022-07-27T16:03:09.810Z,21.40
2022-07-27T16:05:38.780Z,21.30
2022-07-27T16:08:09.046Z,21.20
2022-07-27T16:10:38.794Z,20.90
2022-07-27T16:13:07.722Z,21.00
2022-07-27T16:15:54.657Z,20.90
2022-07-27T16:18:22.935Z,21.00
2022-07-27T16:20:51.588Z,20.90
2022-07-27T16:23:21.857Z,20.70
2022-07-27T16:26:10.275Z,20.50
2022-07-27T16:28:40.529Z,20.20
2022-07-27T16:31:10.336Z,20.10
2022-07-27T16:33:38.656Z,19.80
2022-07-27T16:36:08.619Z,19.60
2022-07-27T16:38:37.677Z,19.40
2022-07-27T16:41:10.889Z,19.30
2022-07-27T16:43:39.596Z,19.20
2022-07-27T16:46:10.001Z,19.20
2022-07-27T16:48:42.693Z,19.10
2022-07-27T16:51:12.817Z,19.10
2022-07-27T16:53:42.191Z,19.10
2022-07-27T16:56:12.438Z,19.00
2022-07-27T16:58:40.570Z,18.80
2022-07-27T17:01:09.510Z,18.70
2022-07-27T17:03:37.736Z,18.60
2022-07-27T17:06:07.282Z,18.70
2022-07-27T17:08:36.671Z,18.60
2022-07-27T17:11:06.290Z,18.60
2022-07-27T17:13:36.274Z,18.60
2022-07-27T17:16:05.690Z,18.60
2022-07-27T17:18:39.456Z,18.40
2022-07-27T17:21:09.339Z,18.40
2022-07-27T17:23:39.670Z,18.40
2022-07-27T17:26:09.186Z,18.30
2022-07-27T17:28:40.236Z,18.30
2022-07-27T17:31:10.944Z,18.20
2022-07-27T17:33:39.732Z,18.10
2022-07-27T17:36:14.694Z,18.10
2022-07-27T17:38:44.053Z,18.20
2022-07-27T17:41:12.272Z,18.10
2022-07-27T17:43:41.609Z,17.90
2022-07-27T17:46:10.996Z,17.70
2022-07-27T17:48:39.620Z,17.50
2022-07-27T17:51:10.300Z,17.40
2022-07-27T17:53:38.560Z,17.30
2022-07-27T17:56:08.237Z,17.30
2022-07-27T17:58:36.426Z,17.40
2022-07-27T18:01:06.692Z,17.30
2022-07-27T18:03:34.967Z,17.30
2022-07-27T18:06:03.390Z,17.30
2022-07-27T18:08:31.680Z,17.30
2022-07-27T18:10:59.863Z,17.20
2022-07-27T18:13:39.177Z,17.10
2022-07-27T18:16:13.953Z,17.00
2022-07-27T18:18:43.575Z,17.00
2022-07-27T18:21:13.240Z,17.00
2022-07-27T18:23:41.643Z,17.10
2022-07-27T18:26:10.870Z,17.10
2022-07-27T18:28:40.239Z,17.10
2022-07-27T18:31:09.718Z,17.10
2022-07-27T18:33:44.315Z,17.00
2022-07-27T18:36:12.374Z,16.90
2022-07-27T18:38:40.463Z,16.80
2022-07-27T18:41:08.559Z,16.80
2022-07-27T18:43:36.546Z,16.80
2022-07-27T18:46:04.825Z,16.60
2022-07-27T18:48:33.435Z,16.50
2022-07-27T18:51:02.842Z,16.50
2022-07-27T18:53:31.039Z,16.50
2022-07-27T18:55:59.120Z,16.50
2022-07-27T18:58:27.642Z,16.50
2022-07-27T19:00:55.970Z,16.40
2022-07-27T19:03:24.784Z,16.40
2022-07-27T19:05:56.031Z,16.20
2022-07-27T19:08:26.276Z,16.10
2022-07-27T19:10:54.374Z,16.10
2022-07-27T19:13:22.408Z,16.20
2022-07-27T19:15:50.486Z,16.20
2022-07-27T19:18:18.562Z,16.10
2022-07-27T19:20:46.633Z,16.00
2022-07-27T19:23:14.853Z,15.90
2022-07-27T19:25:45.341Z,15.90
2022-07-27T19:28:16.767Z,15.80
2022-07-27T19:30:44.957Z,15.70
2022-07-27T19:33:13.325Z,15.70
2022-07-27T19:35:41.458Z,15.70
2022-07-27T19:38:10.493Z,15.80
2022-07-27T19:40:44.682Z,15.90
2022-07-27T19:43:15.902Z,15.80
2022-07-27T19:45:44.647Z,15.60
2022-07-27T19:48:13.140Z,15.50
2022-07-27T19:50:41.399Z,15.40
2022-07-27T19:53:09.442Z,15.30
2022-07-27T19:55:37.774Z,15.30
2022-07-27T19:58:05.780Z,15.30
2022-07-27T20:00:35.171Z,15.20
2022-07-27T20:03:03.844Z,15.20
2022-07-27T20:05:32.233Z,15.10
2022-07-27T20:08:00.229Z,15.10
2022-07-27T20:10:28.264Z,15.10
2022-07-27T20:12:56.241Z,15.10
2022-07-27T20:15:24.311Z,15.10
2022-07-27T20:17:53.697Z,15.10
2022-07-27T20:20:21.752Z,15.00
2022-07-27T20:22:49.872Z,15.00
2022-07-27T20:25:18.612Z,15.00
2022-07-27T20:27:47.235Z,14.90
2022-07-27T20:30:17.492Z,14.80
2022-07-27T20:32:46.500Z,14.70
2022-07-27T20:35:15.889Z,14.60
2022-07-27T20:37:45.029Z,14.60
2022-07-27T20:40:13.803Z,14.50
2022-07-27T20:42:42.667Z,14.30
2022-07-27T20:45:14.286Z,14.30
2022-07-27T20:47:42.864Z,14.20
2022-07-27T20:50:12.837Z,14.30
2022-07-27T20:52:44.826Z,14.30
2022-07-27T20:55:13.171Z,14.40
2022-07-27T20:57:41.355Z,14.40
2022-07-27T21:00:10.606Z,14.40
2022-07-27T21:02:38.803Z,14.40
2022-07-27T21:05:08.685Z,14.30
2022-07-27T21:07:36.647Z,14.10
2022-07-27T21:10:07.058Z,13.80
2022-07-27T21:12:35.388Z,13.90
2022-07-27T21:15:03.513Z,13.70
2022-07-27T21:17:31.480Z,13.50
2022-07-27T21:19:59.482Z,13.50
2022-07-27T21:22:27.500Z,13.50
2022-07-27T21:24:55.483Z,13.50
2022-07-27T21:27:25.483Z,13.40
2022-07-27T21:29:54.304Z,13.50
2022-07-27T21:32:22.382Z,13.50
2022-07-27T21:34:50.355Z,13.40
2022-07-27T21:37:18.617Z,13.40
2022-07-27T21:39:46.679Z,13.50
2022-07-27T21:42:14.669Z,13.50
2022-07-27T21:44:44.146Z,13.60
2022-07-27T21:47:14.236Z,13.70
2022-07-27T21:49:42.909Z,13.70
2022-07-27T21:52:11.226Z,13.80
2022-07-27T21:54:39.890Z,13.80
2022-07-27T21:57:08.031Z,13.80
2022-07-27T21:59:36.024Z,13.70
2022-07-27T22:02:05.503Z,13.60
2022-07-27T22:04:33.833Z,13.50
2022-07-27T22:07:02.010Z,13.20
2022-07-27T22:09:30.542Z,13.20
2022-07-27T22:11:58.660Z,13.00
2022-07-27T22:14:26.818Z,13.10
2022-07-27T22:16:54.907Z,13.10
2022-07-27T22:19:24.686Z,13.00
2022-07-27T22:21:52.645Z,13.00
2022-07-27T22:24:20.649Z,13.00
2022-07-27T22:26:49.130Z,12.80
2022-07-27T22:29:17.200Z,12.80
2022-07-27T22:31:45.281Z,12.90
2022-07-27T22:34:13.498Z,12.90
2022-07-27T22:36:43.235Z,12.90
2022-07-27T22:39:12.825Z,12.80
2022-07-27T22:41:41.452Z,12.80
2022-07-27T22:44:09.440Z,12.70
2022-07-27T22:46:37.391Z,12.50
2022-07-27T22:49:05.701Z,12.50
2022-07-27T22:51:50.404Z,12.50
2022-07-27T22:54:22.191Z,12.40
2022-07-27T22:56:50.574Z,12.40
2022-07-27T22:59:18.683Z,12.50
2022-07-27T23:01:48.179Z,12.60
2022-07-27T23:04:17.708Z,12.60
2022-07-27T23:06:46.306Z,12.60
2022-07-27T23:09:14.388Z,12.50
2022-07-27T23:11:44.404Z,12.40
2022-07-27T23:14:12.916Z,12.20
2022-07-27T23:16:41.589Z,12.20
2022-07-27T23:19:09.974Z,12.20
2022-07-27T23:21:39.433Z,12.10
2022-07-27T23:24:08.117Z,12.10
2022-07-27T23:26:37.994Z,12.10
2022-07-27T23:29:07.358Z,12.00
2022-07-27T23:31:35.529Z,11.90
2022-07-27T23:34:03.586Z,11.90
2022-07-27T23:36:31.685Z,11.80
2022-07-27T23:38:59.669Z,11.90
2022-07-27T23:41:28.014Z,11.80
2022-07-27T23:43:55.984Z,11.80
2022-07-27T23:46:25.411Z,11.90
2022-07-27T23:48:53.544Z,11.90
2022-07-27T23:51:22.000Z,12.00
2022-07-27T23:53:50.055Z,11.90
2022-07-27T23:56:18.116Z,11.90
2022-07-27T23:58:46.183Z,11.80
